Time;durP1;ratioP1;P1;durP2;ratioP2;P2;SDS_P1;SDS_P2;PMS_P1;PMS_P2;Temp;Humidity;BMP_temperature;BMP_pressure;BME280_temperature;BME280_humidity;BME280_pressure;Samples;Min_cycle;Max_cycle;Signal;HPM_P1;HPM_P2
2022/05/02 00:00:20;;;;;;;7.50;4.57;;;;;;;9.66;65.74;101383.63;5093992;28;20564;-82
2022/05/02 00:02:47;;;;;;;5.33;4.30;;;;;;;9.65;66.24;101381.03;5093575;28;20689;-82
2022/05/02 00:05:15;;;;;;;6.07;4.80;;;;;;;9.64;65.88;101374.88;5093578;28;20248;-82
2022/05/02 00:07:41;;;;;;;5.43;4.90;;;;;;;9.63;66.39;101375.81;5093247;28;20547;-82
2022/05/02 00:10:09;;;;;;;6.40;4.83;;;;;;;9.63;66.25;101375.81;5094369;28;20200;-82
2022/05/02 00:12:36;;;;;;;6.00;4.33;;;;;;;9.64;66.25;101374.00;5093574;28;20291;-82
2022/05/02 00:15:02;;;;;;;5.37;4.20;;;;;;;9.63;65.54;101375.81;5091984;28;20224;-81
2022/05/02 00:20:14;;;;;;;8.90;6.20;;;;;;;9.56;65.52;101363.72;5092464;28;20199;-82
2022/05/02 00:22:41;;;;;;;12.77;7.87;;;;;;;9.55;65.91;101363.78;5092561;28;20210;-82
2022/05/02 00:25:08;;;;;;;7.40;6.17;;;;;;;9.53;66.23;101358.53;5091736;28;20224;-81
2022/05/02 00:27:35;;;;;;;6.10;4.87;;;;;;;9.53;66.03;101361.19;5092011;28;20204;-81
2022/05/02 00:30:01;;;;;;;4.93;4.43;;;;;;;9.47;65.91;101353.53;5092198;28;20210;-82
2022/05/02 00:32:28;;;;;;;5.30;4.80;;;;;;;9.42;65.80;101352.03;5092231;28;20231;-80
2022/05/02 00:34:54;;;;;;;5.23;4.70;;;;;;;9.35;65.96;101349.63;5092763;28;20236;-82
2022/05/02 00:37:22;;;;;;;6.83;4.90;;;;;;;9.32;66.70;101346.25;5091952;28;20214;-81
2022/05/02 00:39:49;;;;;;;7.53;5.63;;;;;;;9.31;66.97;101342.78;5091010;28;20230;-81
2022/05/02 00:42:15;;;;;;;6.13;5.47;;;;;;;9.32;67.45;101340.94;5091555;28;20542;-82
2022/05/02 00:44:43;;;;;;;7.40;5.67;;;;;;;9.31;67.41;101345.44;5091861;28;20565;-82
2022/05/02 00:47:09;;;;;;;7.17;5.77;;;;;;;9.32;67.89;101343.59;5091655;28;20281;-81
2022/05/02 00:49:38;;;;;;;5.73;5.13;;;;;;;9.33;67.39;101345.31;5091911;28;20780;-81
2022/05/02 00:52:06;;;;;;;8.10;5.60;;;;;;;9.35;67.61;101348.78;5098407;28;20291;-81
2022/05/02 00:54:35;;;;;;;6.17;5.50;;;;;;;9.36;68.29;101350.50;5101742;28;20239;-81
2022/05/02 00:57:03;;;;;;;5.97;5.37;;;;;;;9.39;68.17;101350.38;5106146;28;20200;-82
2022/05/02 00:59:29;;;;;;;5.17;4.67;;;;;;;9.40;68.44;101357.41;5105425;28;20196;-82
2022/05/02 01:01:56;;;;;;;6.03;5.30;;;;;;;9.42;68.16;101349.34;5091647;28;20207;-81
2022/05/02 01:04:22;;;;;;;6.23;4.93;;;;;;;9.42;67.75;101352.88;5091381;28;20227;-81
2022/05/02 01:09:37;;;;;;;6.40;4.90;;;;;;;9.38;67.57;101348.63;5093509;28;20191;-81
2022/05/02 01:12:04;;;;;;;6.37;5.03;;;;;;;9.31;67.95;101342.78;5093975;28;20238;-81
2022/05/02 01:14:33;;;;;;;5.30;4.80;;;;;;;9.28;68.53;101337.59;5093413;28;20236;-81
2022/05/02 01:17:00;;;;;;;5.87;5.27;;;;;;;9.26;69.00;101346.56;5092975;28;20254;-82
2022/05/02 01:19:26;;;;;;;6.97;5.00;;;;;;;9.25;68.24;101345.69;5093441;28;20200;-81
2022/05/02 01:21:54;;;;;;;5.43;4.93;;;;;;;9.25;68.73;101347.50;5093226;28;20208;-82
2022/05/02 01:24:21;;;;;;;5.37;4.83;;;;;;;9.22;69.00;101342.31;5093781;28;20598;-81
2022/05/02 01:26:48;;;;;;;7.17;5.30;;;;;;;9.20;69.11;101344.19;5093776;28;20212;-80
2022/05/02 01:29:14;;;;;;;5.90;5.30;;;;;;;9.18;69.63;101340.72;5096322;28;20238;-81
2022/05/02 01:31:41;;;;;;;7.50;4.80;;;;;;;9.17;69.68;101346.97;5096270;28;20204;-81
2022/05/02 01:34:08;;;;;;;7.90;5.20;;;;;;;9.17;69.24;101342.53;5096787;28;20232;-81
2022/05/02 01:36:35;;;;;;;5.97;5.33;;;;;;;9.16;69.30;101337.28;5096182;28;20535;-81
2022/05/02 01:39:03;;;;;;;8.13;5.57;;;;;;;9.15;69.84;101340.88;5095373;28;20212;-81
2022/05/02 01:41:29;;;;;;;5.57;5.07;;;;;;;9.14;69.89;101341.81;5095446;28;20552;-82
2022/05/02 01:43:56;;;;;;;7.93;5.20;;;;;;;9.13;69.67;101332.13;5095010;28;20220;-81
2022/05/02 01:46:22;;;;;;;6.60;5.33;;;;;;;9.10;69.75;101327.81;5094678;28;20535;-82
2022/05/02 01:48:49;;;;;;;5.63;5.00;;;;;;;9.09;70.34;101326.09;5110028;28;20207;-81
2022/05/02 01:51:15;;;;;;;5.73;5.17;;;;;;;9.04;69.55;101326.31;5101100;28;20200;-82
2022/05/02 01:53:42;;;;;;;6.17;5.50;;;;;;;9.01;70.07;101331.75;5094621;28;20558;-81
2022/05/02 01:56:10;;;;;;;6.57;5.50;;;;;;;8.99;70.01;101322.97;5093729;28;20228;-82
2022/05/02 01:58:36;;;;;;;5.93;5.43;;;;;;;8.95;69.98;101321.44;5094148;28;20197;-81
2022/05/02 02:01:03;;;;;;;6.53;5.80;;;;;;;8.92;70.42;101326.88;5094839;28;20192;-82
2022/05/02 02:03:29;;;;;;;7.00;5.60;;;;;;;8.91;70.06;101332.25;5087486;28;20236;-81
2022/05/02 02:05:55;;;;;;;5.77;5.27;;;;;;;8.88;70.25;101325.28;5091650;28;20207;-82
2022/05/02 02:08:24;;;;;;;6.20;5.70;;;;;;;8.87;70.81;101328.00;5095785;28;20578;-81
2022/05/02 02:10:53;;;;;;;5.33;4.83;;;;;;;8.81;70.10;101321.16;5094137;28;20243;-81
2022/05/02 02:13:21;;;;;;;5.70;5.20;;;;;;;8.74;70.14;101317.09;5094579;28;20555;-80
2022/05/02 02:15:48;;;;;;;6.77;5.50;;;;;;;8.68;70.47;101325.31;5094867;28;20942;-80
2022/05/02 02:18:15;;;;;;;6.03;5.43;;;;;;;8.64;70.63;101321.06;5094765;28;20200;-80
2022/05/02 02:20:43;;;;;;;8.60;6.00;;;;;;;8.61;71.04;101330.03;5095012;28;20277;-81
2022/05/02 02:23:10;;;;;;;7.93;5.83;;;;;;;8.60;71.50;101327.44;5094945;28;20294;-81
2022/05/02 02:25:38;;;;;;;6.40;5.47;;;;;;;8.58;71.01;101335.50;5094510;28;20666;-81
2022/05/02 02:28:05;;;;;;;6.80;5.10;;;;;;;8.57;71.46;101330.25;5094457;28;20203;-81
2022/05/02 02:30:33;;;;;;;5.93;5.33;;;;;;;8.57;72.05;101340.88;5094545;28;20204;-82
2022/05/02 02:33:00;;;;;;;6.23;5.57;;;;;;;8.57;71.11;101335.56;5093994;28;20204;-82
2022/05/02 02:35:28;;;;;;;6.00;5.40;;;;;;;8.56;71.27;101328.53;5094471;28;20212;-81
2022/05/02 02:37:54;;;;;;;5.83;5.10;;;;;;;8.55;72.52;101332.97;5092810;28;20204;-81
2022/05/02 02:40:22;;;;;;;5.83;5.33;;;;;;;8.54;71.80;101319.75;5093322;28;20219;-81
2022/05/02 02:42:49;;;;;;;5.93;5.33;;;;;;;8.52;72.10;101321.63;5093724;28;20207;-81
2022/05/02 02:45:16;;;;;;;6.87;5.50;;;;;;;8.49;72.22;101319.09;5094178;28;20212;-81
2022/05/02 02:47:44;;;;;;;7.73;5.43;;;;;;;8.46;72.15;101316.56;5093887;28;20589;-81
2022/05/02 02:50:11;;;;;;;6.83;6.13;;;;;;;8.42;72.14;101320.31;5094049;28;20569;-82
2022/05/02 02:52:37;;;;;;;6.70;5.60;;;;;;;8.40;72.85;101314.19;5093965;28;20777;-82
2022/05/02 02:55:05;;;;;;;6.70;5.93;;;;;;;8.38;72.32;101314.25;5093638;28;20563;-82
2022/05/02 02:57:31;;;;;;;7.00;6.40;;;;;;;8.38;72.31;101314.25;5093283;28;20211;-81
2022/05/02 02:59:58;;;;;;;7.33;6.17;;;;;;;8.40;72.88;101312.41;5094702;28;20200;-81
2022/05/02 03:02:25;;;;;;;7.80;7.00;;;;;;;8.40;72.42;101309.75;5094037;28;20211;-81
2022/05/02 03:07:37;;;;;;;7.47;6.23;;;;;;;8.39;73.19;101300.06;5093878;28;20314;-81
2022/05/02 03:10:05;;;;;;;6.73;6.07;;;;;;;8.38;72.26;101305.44;5093648;28;20211;-81
2022/05/02 03:12:32;;;;;;;7.10;6.20;;;;;;;8.35;73.68;101296.69;5093339;28;20214;-81
2022/05/02 03:14:58;;;;;;;7.20;6.10;;;;;;;8.36;73.51;101292.22;5094410;28;20235;-81
2022/05/02 03:17:25;;;;;;;6.40;5.83;;;;;;;8.40;73.94;101290.31;5095266;28;20563;-81
2022/05/02 03:19:53;;;;;;;6.77;6.17;;;;;;;8.38;73.48;101287.72;5094687;28;20675;-81
2022/05/02 03:22:19;;;;;;;7.53;6.83;;;;;;;8.39;73.91;101283.28;5107769;28;20560;-80
2022/05/02 03:24:46;;;;;;;7.70;6.17;;;;;;;8.38;74.06;101284.22;5115259;28;20314;-82
2022/05/02 03:27:12;;;;;;;7.43;6.53;;;;;;;8.38;73.85;101284.22;5078804;28;20196;-81
2022/05/02 03:29:39;;;;;;;8.13;7.33;;;;;;;8.35;74.26;101275.44;5096409;28;20214;-80
2022/05/02 03:32:06;;;;;;;8.43;6.80;;;;;;;8.34;74.13;101276.38;5092749;28;20212;-81
2022/05/02 03:34:33;;;;;;;8.00;7.07;;;;;;;8.35;73.80;101277.25;5094804;28;20234;-81
2022/05/02 03:37:00;;;;;;;8.50;7.60;;;;;;;8.34;74.68;101284.34;5095304;28;20574;-81
2022/05/02 03:39:27;;;;;;;8.33;6.53;;;;;;;8.36;74.51;101281.63;5095432;28;20678;-81
2022/05/02 03:41:54;;;;;;;7.60;6.80;;;;;;;8.38;75.42;101286.88;5093406;28;20242;-82
2022/05/02 03:44:20;;;;;;;9.27;7.23;;;;;;;8.39;75.05;101293.91;5091313;28;20877;-80
2022/05/02 03:46:47;;;;;;;9.37;7.40;;;;;;;8.38;73.97;101293.03;5087882;28;20211;-81
2022/05/02 03:49:14;;;;;;;7.87;7.07;;;;;;;8.37;74.33;101291.31;5093993;28;20196;-81
2022/05/02 03:51:40;;;;;;;10.40;7.00;;;;;;;8.37;74.49;101293.09;5093961;28;20211;-82
2022/05/02 03:54:08;;;;;;;7.63;6.93;;;;;;;8.35;74.37;101287.84;5094366;28;20235;-82
2022/05/02 03:56:35;;;;;;;7.60;6.90;;;;;;;8.34;74.16;101292.31;5090283;28;20225;-81
2022/05/02 03:59:01;;;;;;;8.03;6.97;;;;;;;8.35;74.24;101295.81;5096910;28;20204;-81
2022/05/02 04:01:28;;;;;;;8.50;7.20;;;;;;;8.34;74.19;101294.09;5094397;28;20200;-81
2022/05/02 04:03:55;;;;;;;7.47;6.77;;;;;;;8.32;74.75;101299.47;5093806;28;20220;-81
2022/05/02 04:06:21;;;;;;;7.97;7.03;;;;;;;8.31;74.54;101297.69;5087909;28;20227;-82
2022/05/02 04:08:48;;;;;;;8.30;7.03;;;;;;;8.31;74.82;101294.19;5094121;28;20823;-80
2022/05/02 04:11:16;;;;;;;7.80;6.80;;;;;;;8.29;74.43;101291.59;5096700;28;20219;-81
2022/05/02 04:13:42;;;;;;;8.03;7.20;;;;;;;8.27;73.78;101280.19;5093761;28;20222;-81
2022/05/02 04:16:09;;;;;;;6.60;5.90;;;;;;;8.28;74.60;101281.03;5096765;28;20227;-80
2022/05/02 04:18:35;;;;;;;7.10;6.47;;;;;;;8.25;73.87;101271.44;5093128;28;20196;-80
2022/05/02 04:21:02;;;;;;;7.83;7.03;;;;;;;8.23;73.85;101273.31;5090820;28;20209;-81
2022/05/02 04:23:28;;;;;;;8.47;7.63;;;;;;;8.20;73.60;101272.56;5093247;28;20220;-81
2022/05/02 04:25:55;;;;;;;7.90;7.10;;;;;;;8.19;74.61;101273.50;5093618;28;20287;-81
2022/05/02 04:28:23;;;;;;;9.10;7.10;;;;;;;8.19;74.48;101282.31;5094594;28;20207;-82
2022/05/02 04:30:49;;;;;;;8.10;7.30;;;;;;;8.18;74.86;101283.25;5086854;28;20219;-82
2022/05/02 04:33:16;;;;;;;8.00;7.20;;;;;;;8.19;74.46;101276.16;5088560;28;20216;-81
2022/05/02 04:35:42;;;;;;;7.87;7.07;;;;;;;8.21;74.82;101284.91;5090894;28;20749;-82
2022/05/02 04:38:09;;;;;;;9.37;6.80;;;;;;;8.22;74.53;101284.84;5079749;28;20669;-82
2022/05/02 04:40:35;;;;;;;7.30;6.60;;;;;;;8.23;74.79;101291.88;5076578;28;20205;-81
2022/05/02 04:43:02;;;;;;;7.97;7.17;;;;;;;8.23;75.02;101299.84;5086944;28;20204;-82
2022/05/02 04:45:30;;;;;;;7.67;6.80;;;;;;;8.23;74.40;101285.72;5091383;28;20192;-82
2022/05/02 04:47:57;;;;;;;8.47;6.90;;;;;;;8.22;74.44;101292.81;5089608;28;20212;-81
2022/05/02 04:50:23;;;;;;;8.47;7.37;;;;;;;8.20;74.83;101286.72;5092398;28;20204;-81
2022/05/02 04:52:50;;;;;;;8.57;7.20;;;;;;;8.22;74.73;101284.00;5092095;28;20666;-82
2022/05/02 04:55:17;;;;;;;9.23;7.50;;;;;;;8.23;74.67;101288.38;5092259;28;20219;-82
2022/05/02 04:57:44;;;;;;;8.57;7.77;;;;;;;8.25;74.85;101287.34;5092304;28;20311;-81
2022/05/02 05:00:11;;;;;;;8.20;7.07;;;;;;;8.27;74.26;101287.28;5092008;28;20212;-80
2022/05/02 05:02:39;;;;;;;10.13;7.50;;;;;;;8.26;74.25;101281.09;5090997;28;21491;-84
2022/05/02 05:05:09;;;;;;;8.87;6.70;;;;;;;8.26;74.71;101274.94;5085424;28;20571;-83
2022/05/02 05:07:36;;;;;;;7.87;7.07;;;;;;;8.23;74.68;101275.09;5086684;28;20542;-85
2022/05/02 05:10:03;;;;;;;8.77;6.80;;;;;;;8.19;73.55;101284.13;5089816;28;20258;-84
2022/05/02 05:12:37;;;;;;;8.90;7.23;;;;;;;8.15;74.17;101286.03;5086090;28;20213;-84
2022/05/02 05:18:07;;;;;;;8.03;6.77;;;;;;;8.14;74.45;101289.63;5091984;28;20230;-84
2022/05/02 05:20:40;;;;;;;7.90;7.10;;;;;;;8.15;74.39;101293.13;5090042;28;20731;-85
2022/05/02 05:23:32;;;;;;;8.53;6.90;;;;;;;8.16;74.16;101286.91;5084351;28;20205;-85
2022/05/02 05:26:11;;;;;;;7.67;6.97;;;;;;;8.15;74.42;101291.34;5089528;28;20203;-84
2022/05/02 05:29:00;;;;;;;8.87;7.23;;;;;;;8.17;74.75;101284.19;5091789;28;20204;-84
2022/05/02 05:31:33;;;;;;;8.10;7.30;;;;;;;8.19;75.42;101281.47;5088450;28;20205;-85
2022/05/02 05:34:06;;;;;;;10.20;6.80;;;;;;;8.21;74.64;101288.44;5086970;28;20306;-85
2022/05/02 05:36:52;;;;;;;8.33;7.57;;;;;;;8.22;74.82;101287.50;5079530;28;20213;-84
2022/05/02 05:39:36;;;;;;;10.33;6.57;;;;;;;8.24;74.25;101290.94;5090520;28;20275;-85
2022/05/02 05:42:12;;;;;;;10.60;7.33;;;;;;;8.26;75.20;101291.72;5089425;28;20201;-84
2022/05/02 05:44:51;;;;;;;9.23;7.27;;;;;;;8.29;74.26;101288.06;5089764;28;20230;-84
2022/05/02 05:47:32;;;;;;;7.23;6.53;;;;;;;8.30;75.25;101290.66;5087722;28;20192;-85
2022/05/02 05:50:18;;;;;;;9.83;6.43;;;;;;;8.33;75.08;101285.25;5091698;28;20212;-85
2022/05/02 05:53:02;;;;;;;8.53;6.80;;;;;;;8.35;75.01;101286.06;5088975;28;20592;-85
2022/05/02 05:55:46;;;;;;;8.30;6.67;;;;;;;8.37;74.61;101291.31;5085498;28;20651;-85
2022/05/02 05:58:21;;;;;;;9.87;7.50;;;;;;;8.39;74.55;101299.22;5084391;28;20196;-85
2022/05/02 06:00:52;;;;;;;8.30;6.80;;;;;;;8.40;74.14;101300.94;5089067;28;20608;-84
2022/05/02 06:03:25;;;;;;;8.27;7.37;;;;;;;8.43;74.48;101298.13;5087300;28;20228;-84
2022/05/02 06:05:54;;;;;;;8.03;7.03;;;;;;;8.46;74.58;101304.16;5084222;28;20200;-84
2022/05/02 06:08:22;;;;;;;8.07;7.27;;;;;;;8.49;74.83;101297.84;5089070;28;20200;-85
2022/05/02 06:10:51;;;;;;;10.50;7.63;;;;;;;8.54;74.15;101302.03;5083576;28;20633;-83
2022/05/02 06:13:19;;;;;;;8.27;6.90;;;;;;;8.57;74.34;101295.75;5088310;28;20271;-85
2022/05/02 06:18:38;;;;;;;9.97;7.57;;;;;;;8.60;74.54;101303.53;5089089;28;20321;-82
2022/05/02 06:21:07;;;;;;;8.47;7.23;;;;;;;8.61;74.68;101302.59;5079270;28;20227;-84
2022/05/02 06:23:37;;;;;;;8.43;7.60;;;;;;;8.63;74.50;101306.06;5079616;28;20729;-86
2022/05/02 06:26:04;;;;;;;8.10;7.30;;;;;;;8.65;74.47;101310.38;5087768;28;20197;-85
2022/05/02 06:28:35;;;;;;;7.37;6.60;;;;;;;8.67;74.82;101299.69;5089856;28;20201;-85
2022/05/02 06:31:06;;;;;;;10.67;7.50;;;;;;;8.68;74.88;101301.41;5085430;28;20216;-84
2022/05/02 06:33:33;;;;;;;7.90;6.97;;;;;;;8.72;74.36;101297.69;5087516;28;20217;-84
2022/05/02 06:36:30;;;;;;;7.63;6.60;;;;;;;8.76;74.42;101299.28;5087063;28;20216;-85
2022/05/02 06:39:03;;;;;;;7.73;6.47;;;;;;;8.79;74.82;101299.13;5086544;28;20220;-85
2022/05/02 06:41:54;;;;;;;6.87;6.13;;;;;;;8.84;74.08;101309.53;5082233;28;20201;-85
2022/05/02 06:44:31;;;;;;;8.37;6.57;;;;;;;8.87;74.43;101302.31;5084653;28;20224;-85
2022/05/02 06:47:04;;;;;;;7.53;6.50;;;;;;;8.93;73.99;101302.03;5080291;28;20319;-83
2022/05/02 06:49:33;;;;;;;7.47;6.77;;;;;;;8.98;74.37;101302.66;5088209;28;20206;-85
2022/05/02 06:52:10;;;;;;;8.47;6.10;;;;;;;9.03;73.90;101305.09;5086005;28;20212;-86
2022/05/02 06:54:54;;;;;;;8.13;6.73;;;;;;;9.08;73.82;101305.78;5082361;28;20216;-85
2022/05/02 06:57:36;;;;;;;8.50;7.60;;;;;;;9.13;73.42;101308.22;5082491;28;20215;-85
2022/05/02 07:00:06;;;;;;;10.20;6.30;;;;;;;9.17;73.88;101304.47;5087924;28;20204;-85
2022/05/02 07:02:57;;;;;;;7.67;6.73;;;;;;;9.23;73.30;101307.69;5090585;28;20249;-85
2022/05/02 07:05:27;;;;;;;10.00;7.20;;;;;;;9.26;73.13;101310.22;5078012;28;20201;-83
2022/05/02 07:08:03;;;;;;;8.93;7.67;;;;;;;9.32;73.66;101314.34;5089342;28;20211;-85
2022/05/02 07:10:33;;;;;;;8.20;6.90;;;;;;;9.36;73.71;101307.97;5078625;28;20205;-86
2022/05/02 07:13:15;;;;;;;7.53;6.73;;;;;;;9.43;73.89;101306.75;5078459;28;20223;-84
2022/05/02 07:15:50;;;;;;;8.07;6.77;;;;;;;9.48;73.68;101298.56;5085794;28;20799;-85
2022/05/02 07:18:31;;;;;;;10.13;7.13;;;;;;;9.55;73.78;101303.50;5081433;28;20212;-85
2022/05/02 07:21:08;;;;;;;8.83;7.60;;;;;;;9.59;73.48;101296.22;5085219;28;20196;-84
2022/05/02 07:23:49;;;;;;;9.17;7.37;;;;;;;9.67;74.16;101297.56;5085115;28;20287;-84
2022/05/02 07:26:18;;;;;;;10.93;7.33;;;;;;;9.75;74.42;101295.41;5084437;28;20208;-86
2022/05/02 07:28:46;;;;;;;8.20;6.73;;;;;;;9.83;73.57;101297.69;5079268;28;20215;-84
2022/05/02 07:31:21;;;;;;;10.10;7.00;;;;;;;9.90;74.11;101298.22;5085800;28;20199;-85
2022/05/02 07:33:50;;;;;;;8.93;6.97;;;;;;;9.98;73.94;101294.25;5077266;28;20224;-85
2022/05/02 07:36:18;;;;;;;13.03;7.57;;;;;;;10.04;74.05;101293.91;5087187;28;20212;-84
2022/05/02 07:38:48;;;;;;;10.50;7.67;;;;;;;10.13;73.87;101292.59;5088554;28;20196;-84
2022/05/02 07:41:25;;;;;;;11.37;7.37;;;;;;;10.21;74.16;101290.44;5082144;28;20196;-84
2022/05/02 07:44:00;;;;;;;11.93;8.17;;;;;;;10.30;73.51;101284.66;5080384;28;20308;-84
2022/05/02 07:46:33;;;;;;;9.17;7.70;;;;;;;10.37;73.22;101288.72;5091873;28;20281;-85
2022/05/02 07:49:02;;;;;;;9.33;7.70;;;;;;;10.45;73.81;101290.97;5086135;28;20281;-85
2022/05/02 07:51:29;;;;;;;15.07;8.43;;;;;;;10.51;73.62;101293.31;5076693;28;20213;-84
2022/05/02 07:54:02;;;;;;;12.83;7.77;;;;;;;10.57;73.60;101292.97;5078758;28;20833;-85
2022/05/02 07:56:38;;;;;;;9.77;7.43;;;;;;;10.62;73.42;101296.25;5079034;28;20556;-85
2022/05/02 07:59:08;;;;;;;26.77;10.10;;;;;;;10.66;73.25;101292.50;5090812;28;20215;-83
2022/05/02 08:01:35;;;;;;;12.33;8.43;;;;;;;10.73;73.27;101293.03;5094789;28;20299;-82
2022/05/02 08:04:01;;;;;;;11.37;8.40;;;;;;;10.79;73.02;101287.34;5094702;28;20224;-81
2022/05/02 08:06:43;;;;;;;10.40;8.93;;;;;;;10.87;73.25;101287.81;5093988;28;20216;-82
2022/05/02 08:09:26;;;;;;;9.90;8.90;;;;;;;10.94;73.33;101286.53;5095175;28;20193;-81
2022/05/02 08:12:03;;;;;;;9.50;7.93;;;;;;;11.02;73.27;101278.97;5094556;28;20211;-81
2022/05/02 08:14:35;;;;;;;9.43;8.47;;;;;;;11.09;73.20;101285.69;5095323;28;20310;-81
2022/05/02 08:17:03;;;;;;;9.17;8.33;;;;;;;11.18;73.06;101284.31;5095403;28;20215;-81
2022/05/02 08:19:50;;;;;;;8.73;7.60;;;;;;;11.30;73.26;101293.41;5095088;28;20211;-82
2022/05/02 08:28:08;;;;;;;8.83;7.93;;;;;;;11.65;73.32;101294.94;5095226;28;20184;-82
2022/05/02 08:30:43;;;;;;;9.07;7.70;;;;;;;11.77;72.85;101291.63;5094791;28;20194;-81
2022/05/02 08:33:18;;;;;;;9.17;8.20;;;;;;;11.89;72.55;101289.19;5093709;28;20196;-82
2022/05/02 08:35:56;;;;;;;10.43;8.10;;;;;;;12.01;72.07;101285.78;5094493;28;20193;-81
2022/05/02 08:38:46;;;;;;;11.67;7.77;;;;;;;12.15;71.49;101285.84;5097502;28;20265;-80
2022/05/02 08:41:57;;;;;;;9.37;7.50;;;;;;;12.32;71.60;101285.69;5098709;28;20637;-81
2022/05/02 08:44:51;;;;;;;8.80;7.90;;;;;;;12.55;71.67;101270.91;5098392;28;20859;-81
2022/05/02 08:47:48;;;;;;;10.10;8.43;;;;;;;12.79;71.32;101276.53;5098124;28;20194;-82
2022/05/02 08:50:29;;;;;;;9.77;8.20;;;;;;;13.02;70.85;101269.75;5099139;28;20188;-81
2022/05/02 08:53:41;;;;;;;9.97;8.00;;;;;;;13.24;70.01;101263.94;5097692;28;20188;-82
2022/05/02 08:56:28;;;;;;;10.60;7.63;;;;;;;13.53;70.11;101273.59;5078771;28;20211;-81
2022/05/02 08:59:49;;;;;;;10.43;7.83;;;;;;;13.82;69.11;101279.66;5098432;28;20595;-82
2022/05/02 09:02:53;;;;;;;10.40;7.20;;;;;;;14.07;67.15;101270.84;5098917;28;20185;-81
2022/05/02 09:05:48;;;;;;;8.13;7.33;;;;;;;14.23;65.85;101269.69;5098417;28;20262;-81
2022/05/02 09:08:56;;;;;;;9.43;7.33;;;;;;;14.41;64.53;101264.91;5098651;28;20199;-82
2022/05/02 09:11:34;;;;;;;10.03;7.97;;;;;;;14.55;63.70;101254.09;5097832;28;20295;-81
2022/05/02 09:14:38;;;;;;;8.97;8.00;;;;;;;14.74;63.70;101255.47;5098949;28;20220;-81
2022/05/02 09:17:40;;;;;;;7.73;6.03;;;;;;;14.94;62.57;101254.91;5097778;28;20208;-82
2022/05/02 09:20:36;;;;;;;6.93;6.23;;;;;;;15.13;61.75;101252.59;5074819;28;20669;-81
2022/05/02 09:23:48;;;;;;;6.93;6.23;;;;;;;15.30;61.05;101254.06;5098330;28;20553;-81
2022/05/02 09:26:46;;;;;;;8.40;6.43;;;;;;;15.48;60.63;101252.69;5060107;28;20224;-81
2022/05/02 09:29:44;;;;;;;7.80;7.00;;;;;;;15.67;60.11;101251.34;5098494;28;20519;-82
2022/05/02 09:32:18;;;;;;;11.43;6.80;;;;;;;15.79;59.07;101253.09;5080693;28;20187;-80
2022/05/02 09:34:52;;;;;;;9.23;6.53;;;;;;;15.89;58.01;101246.94;5098282;28;20231;-82
2022/05/02 09:37:23;;;;;;;9.43;6.57;;;;;;;16.00;56.57;101242.56;5097746;28;20210;-81
2022/05/02 09:39:59;;;;;;;11.33;6.97;;;;;;;16.10;55.68;101238.22;5098373;28;20201;-81
2022/05/02 09:42:44;;;;;;;7.70;6.60;;;;;;;16.29;56.16;101236.66;5097714;28;20637;-81
2022/05/02 09:51:54;;;;;;;8.70;6.53;;;;;;;16.85;54.08;101211.63;5097438;28;20219;-81
2022/05/02 09:57:32;;;;;;;5.27;4.70;;;;;;;17.10;51.91;101211.38;5096602;28;20226;-81
2022/05/02 10:02:52;;;;;;;6.47;5.47;;;;;;;17.35;50.46;101205.69;5080149;28;20206;-81
2022/05/02 10:05:23;;;;;;;6.23;4.70;;;;;;;17.42;49.27;101202.47;5097068;28;20619;-82
2022/05/02 10:07:58;;;;;;;7.63;4.93;;;;;;;17.47;48.86;101200.25;5097151;28;20658;-83
2022/05/02 10:10:34;;;;;;;6.37;5.30;;;;;;;17.56;48.60;101194.94;5096913;28;20708;-82
2022/05/02 10:13:08;;;;;;;7.50;4.80;;;;;;;17.62;47.22;101188.19;5096617;28;20283;-82
2022/05/02 10:15:48;;;;;;;7.07;5.13;;;;;;;17.68;46.60;101209.28;5091359;28;20229;-81
2022/05/02 10:18:44;;;;;;;5.07;4.53;;;;;;;17.77;46.91;101196.84;5096446;28;20229;-82
2022/05/02 10:21:26;;;;;;;8.10;5.40;;;;;;;17.86;46.06;101196.06;5094400;28;20197;-82
2022/05/02 10:24:10;;;;;;;5.23;4.73;;;;;;;17.96;45.74;101189.75;5095900;28;20225;-81
2022/05/02 10:26:44;;;;;;;5.93;4.63;;;;;;;18.06;45.87;101186.28;5090895;28;20230;-83
2022/05/02 10:29:34;;;;;;;6.80;4.63;;;;;;;18.17;45.39;101180.81;5096737;28;20190;-82
2022/05/02 10:32:04;;;;;;;7.10;5.60;;;;;;;18.27;45.28;101174.47;5096412;28;20191;-82
2022/05/02 10:34:33;;;;;;;6.67;5.53;;;;;;;18.35;45.22;101177.38;5095451;28;20226;-83
2022/05/02 10:37:04;;;;;;;6.77;5.13;;;;;;;18.48;45.58;101178.97;5094120;28;20198;-83
2022/05/02 10:39:40;;;;;;;7.67;5.60;;;;;;;18.59;45.21;101169.00;5092523;28;20213;-81
2022/05/02 10:42:10;;;;;;;6.57;5.37;;;;;;;18.65;44.95;101179.22;5092443;28;20242;-83
2022/05/02 10:44:50;;;;;;;8.57;6.00;;;;;;;18.74;45.10;101164.06;5078944;28;20236;-81
2022/05/02 10:47:20;;;;;;;7.47;5.40;;;;;;;18.81;45.01;101162.50;5079680;28;20236;-82
2022/05/02 10:50:04;;;;;;;6.20;5.03;;;;;;;18.90;44.74;101163.53;5096557;28;20262;-81
2022/05/02 10:52:54;;;;;;;7.43;5.70;;;;;;;18.94;44.22;101165.84;5075329;28;20211;-82
2022/05/02 10:55:25;;;;;;;7.57;5.20;;;;;;;19.01;44.15;101155.31;5074472;28;20228;-82
2022/05/02 10:57:54;;;;;;;7.13;5.53;;;;;;;19.07;43.85;101152.94;5075520;28;20279;-81
2022/05/02 11:00:21;;;;;;;5.90;5.33;;;;;;;19.16;43.84;101153.09;5074725;28;20210;-81
2022/05/02 11:03:22;;;;;;;6.07;5.27;;;;;;;19.20;43.52;101143.69;5074969;28;20302;-81
2022/05/02 11:06:03;;;;;;;7.17;5.33;;;;;;;19.24;43.27;101148.69;5075101;28;20198;-82
2022/05/02 11:08:36;;;;;;;8.30;5.87;;;;;;;19.30;43.96;101148.13;5075360;28;20231;-82
2022/05/02 11:11:06;;;;;;;6.93;5.77;;;;;;;19.33;43.87;101145.16;5075378;28;20192;-81
2022/05/02 11:13:41;;;;;;;6.73;4.80;;;;;;;19.36;43.90;101142.13;5089193;28;20214;-82
2022/05/02 11:16:23;;;;;;;6.20;5.10;;;;;;;19.42;43.18;101132.63;5095019;28;20209;-81
2022/05/02 11:21:50;;;;;;;6.37;4.93;;;;;;;19.54;43.11;101122.53;5094692;28;20221;-81
2022/05/02 11:24:34;;;;;;;5.77;5.20;;;;;;;19.56;42.61;101126.81;5095172;28;20232;-82
2022/05/02 11:27:09;;;;;;;6.43;5.40;;;;;;;19.61;42.99;101123.69;5094798;28;20554;-82
2022/05/02 11:29:49;;;;;;;6.67;5.40;;;;;;;19.64;41.96;101120.72;5095183;28;20189;-82
2022/05/02 11:32:26;;;;;;;6.50;5.80;;;;;;;19.69;42.03;101113.03;5095118;28;20649;-82
2022/05/02 11:35:03;;;;;;;5.33;4.83;;;;;;;19.73;41.81;101111.72;5094539;28;20229;-82
2022/05/02 11:37:37;;;;;;;7.10;5.73;;;;;;;19.81;41.96;101106.44;5094140;28;20626;-82
2022/05/02 11:40:09;;;;;;;7.97;5.53;;;;;;;19.88;41.31;101115.69;5095093;28;20639;-82
2022/05/02 11:42:38;;;;;;;7.73;5.77;;;;;;;19.96;41.32;101113.09;5094610;28;20182;-82
2022/05/02 11:45:11;;;;;;;6.00;5.17;;;;;;;20.07;41.27;101104.81;5094389;28;20222;-81
2022/05/02 11:48:14;;;;;;;7.17;5.43;;;;;;;20.18;40.45;101097.53;5094285;28;20211;-82
2022/05/02 11:50:44;;;;;;;7.70;5.40;;;;;;;20.16;39.87;101099.53;5068711;28;20222;-80
2022/05/02 11:53:13;;;;;;;6.10;5.23;;;;;;;20.16;39.82;101108.47;5103100;28;20661;-82
2022/05/02 11:55:41;;;;;;;8.17;5.77;;;;;;;20.14;39.58;101105.06;5114587;28;20579;-81
2022/05/02 11:58:19;;;;;;;7.20;6.30;;;;;;;20.14;39.37;101099.66;5111617;28;20262;-81
2022/05/02 12:00:52;;;;;;;7.13;5.50;;;;;;;20.16;40.03;101096.81;5094265;28;20199;-82
2022/05/02 12:03:24;;;;;;;6.27;5.67;;;;;;;20.22;40.06;101096.22;5093720;28;20254;-82
2022/05/02 12:05:52;;;;;;;6.20;5.60;;;;;;;20.27;39.16;101099.31;5094220;28;20298;-81
2022/05/02 12:08:26;;;;;;;8.70;6.10;;;;;;;20.24;38.99;101086.97;5089308;28;20209;-81
2022/05/02 12:11:05;;;;;;;6.93;5.90;;;;;;;20.22;39.22;101086.28;5089399;28;20223;-81
2022/05/02 12:13:35;;;;;;;6.90;5.33;;;;;;;20.26;39.34;101086.78;5090673;28;20230;-82
2022/05/02 12:16:05;;;;;;;8.80;6.67;;;;;;;20.32;39.50;101075.38;5093236;28;20207;-82
2022/05/02 12:18:43;;;;;;;11.23;5.77;;;;;;;20.33;39.10;101077.09;5092794;28;20282;-81
2022/05/02 12:21:15;;;;;;;7.57;5.87;;;;;;;20.36;39.49;101076.81;5094057;28;20236;-82
2022/05/02 12:23:43;;;;;;;8.80;5.93;;;;;;;20.40;39.46;101072.84;5091771;28;20227;-81
2022/05/02 12:26:18;;;;;;;6.87;6.17;;;;;;;20.40;39.61;101067.44;5093012;28;20199;-81
2022/05/02 12:28:47;;;;;;;7.97;6.00;;;;;;;20.42;39.12;101068.13;5093590;28;20205;-81
2022/05/02 12:31:17;;;;;;;6.10;5.30;;;;;;;20.46;39.38;101069.50;5094102;28;20253;-82